Airfield :
LOGIN :

Register | Disclaimer

   EN    FR    IT 

 










Legend :    VFR   Marginal VFR   IFR   Intensive IFR   Very Intensive IFR
Visi :
Ceiling :
>= 8 km
>= 3000ft
5 to 8 km
1000 to 3000 ft
1500m to 5 km
500 to 1000 ft
800 to 1500m
200 to 500 ft
< 800m
< 200 ft
Symbols :   Thunderstorms  Fog  Heavy snow  Heavy precipitations  Wind > 20 kt
SIGMETs :     Misc.  Thunderstorms  Icing  Turbulence  Mountain Waves  Volcanic Ashes






- Airport Elevation : 782 ft
- IATA code : BGY


LIME - Orio al Serio International - Bergamo

CURRENT METAR :
  • 281620Z AUTO 24003KT 200V280 9999 FEW120/// 25/07 Q1020

EXPIRED METARs :
  • 281550Z AUTO 16004KT 100V210 9999 NCD 25/08 Q1020
  • 281520Z AUTO 15005KT 080V220 9999 NCD 25/08 Q1020
  • 281450Z AUTO VRB03KT 9999 FEW069/// 25/09 Q1020
  • 281420Z AUTO 16005KT 090V230 9999 NCD 24/09 Q1021
  • 281350Z AUTO VRB04KT 9999 NCD 25/09 Q1021
  • 281320Z AUTO 23006KT 150V290 9999 NCD 24/09 Q1021

TAF TAF LIME
Valid from the 28 at 12:00 until the 29 at 12:00 UTC


281100Z 2812/2912 VRB05KT 9999 SCT030
TEMPO 2815/2821 TSRA
TEMPO 2903/2906 TSRA
BECMG 2904/2906 11010KT



MET'MAP, your aeronautical weather chart ! - Copyright ORBIFLY December 2007 - Disclaimer

ORBIFLY MET'MAP TEAM :

Programming & Development : Alexandra Zaïnal
Concept & original design : Baudouin d'Aumeries
Assistance for programming : Marc-Olivier Méhu
Technical & hardware support : Manuel Goepfert

Contact : metmap@orbifly.com




SOURCES & CREDITS :

   NOAA